sensor_id;sensor_type;location;lat;lon;timestamp;P1;durP1;ratioP1;P2;durP2;ratioP2
2620;SDS011;1320;48.128;11.592;2022-08-19T00:01:46;11.97;;;5.00;;
2620;SDS011;1320;48.128;11.592;2022-08-19T00:04:14;10.53;;;4.53;;
2620;SDS011;1320;48.128;11.592;2022-08-19T00:06:42;11.63;;;4.63;;
2620;SDS011;1320;48.128;11.592;2022-08-19T00:09:10;10.17;;;5.07;;
2620;SDS011;1320;48.128;11.592;2022-08-19T00:11:38;10.83;;;5.00;;
2620;SDS011;1320;48.128;11.592;2022-08-19T00:14:05;11.80;;;4.83;;
2620;SDS011;1320;48.128;11.592;2022-08-19T00:16:32;11.07;;;4.63;;
2620;SDS011;1320;48.128;11.592;2022-08-19T00:18:58;10.40;;;4.90;;
2620;SDS011;1320;48.128;11.592;2022-08-19T00:21:24;10.17;;;4.50;;
2620;SDS011;1320;48.128;11.592;2022-08-19T00:23:51;11.93;;;6.00;;
2620;SDS011;1320;48.128;11.592;2022-08-19T00:26:17;15.20;;;6.13;;
2620;SDS011;1320;48.128;11.592;2022-08-19T00:28:43;10.80;;;4.83;;
2620;SDS011;1320;48.128;11.592;2022-08-19T00:31:09;10.90;;;5.37;;
2620;SDS011;1320;48.128;11.592;2022-08-19T00:33:35;11.83;;;5.40;;
2620;SDS011;1320;48.128;11.592;2022-08-19T00:36:04;11.47;;;5.40;;
2620;SDS011;1320;48.128;11.592;2022-08-19T00:38:32;10.67;;;5.30;;
2620;SDS011;1320;48.128;11.592;2022-08-19T00:40:58;11.40;;;5.97;;
2620;SDS011;1320;48.128;11.592;2022-08-19T00:43:25;13.57;;;4.73;;
2620;SDS011;1320;48.128;11.592;2022-08-19T00:45:52;11.13;;;5.50;;
2620;SDS011;1320;48.128;11.592;2022-08-19T00:48:18;11.07;;;5.10;;
2620;SDS011;1320;48.128;11.592;2022-08-19T00:50:45;11.00;;;5.30;;
2620;SDS011;1320;48.128;11.592;2022-08-19T00:53:14;13.57;;;5.93;;
2620;SDS011;1320;48.128;11.592;2022-08-19T00:55:47;11.30;;;5.67;;
2620;SDS011;1320;48.128;11.592;2022-08-19T00:58:17;11.00;;;5.03;;
2620;SDS011;1320;48.128;11.592;2022-08-19T01:00:44;13.20;;;6.90;;
2620;SDS011;1320;48.128;11.592;2022-08-19T01:03:11;11.67;;;5.63;;
2620;SDS011;1320;48.128;11.592;2022-08-19T01:05:41;12.00;;;6.37;;
2620;SDS011;1320;48.128;11.592;2022-08-19T01:08:08;12.57;;;6.40;;
2620;SDS011;1320;48.128;11.592;2022-08-19T01:10:40;11.37;;;6.00;;
2620;SDS011;1320;48.128;11.592;2022-08-19T01:13:15;12.83;;;6.57;;
2620;SDS011;1320;48.128;11.592;2022-08-19T01:15:46;12.57;;;6.63;;
2620;SDS011;1320;48.128;11.592;2022-08-19T01:18:25;12.70;;;6.63;;
2620;SDS011;1320;48.128;11.592;2022-08-19T01:20:54;13.40;;;7.27;;
2620;SDS011;1320;48.128;11.592;2022-08-19T01:23:22;13.20;;;6.53;;
2620;SDS011;1320;48.128;11.592;2022-08-19T01:26:07;15.00;;;7.40;;
2620;SDS011;1320;48.128;11.592;2022-08-19T01:28:36;13.87;;;7.47;;
2620;SDS011;1320;48.128;11.592;2022-08-19T01:31:03;14.27;;;6.57;;
2620;SDS011;1320;48.128;11.592;2022-08-19T01:33:29;14.40;;;7.67;;
2620;SDS011;1320;48.128;11.592;2022-08-19T01:36:22;12.73;;;6.70;;
2620;SDS011;1320;48.128;11.592;2022-08-19T01:39:04;12.70;;;7.10;;
2620;SDS011;1320;48.128;11.592;2022-08-19T01:41:35;13.07;;;7.33;;
2620;SDS011;1320;48.128;11.592;2022-08-19T01:44:01;13.20;;;7.93;;
2620;SDS011;1320;48.128;11.592;2022-08-19T01:46:28;13.80;;;5.90;;
2620;SDS011;1320;48.128;11.592;2022-08-19T01:48:55;14.60;;;7.73;;
2620;SDS011;1320;48.128;11.592;2022-08-19T01:51:21;17.23;;;7.30;;
2620;SDS011;1320;48.128;11.592;2022-08-19T01:53:48;12.73;;;7.27;;
2620;SDS011;1320;48.128;11.592;2022-08-19T01:56:14;14.40;;;7.00;;
2620;SDS011;1320;48.128;11.592;2022-08-19T01:58:41;12.77;;;7.30;;
2620;SDS011;1320;48.128;11.592;2022-08-19T02:01:16;17.60;;;6.37;;
2620;SDS011;1320;48.128;11.592;2022-08-19T02:03:42;12.73;;;6.43;;
2620;SDS011;1320;48.128;11.592;2022-08-19T02:06:07;12.83;;;6.13;;
2620;SDS011;1320;48.128;11.592;2022-08-19T02:08:35;12.70;;;6.30;;
2620;SDS011;1320;48.128;11.592;2022-08-19T02:11:02;16.20;;;7.10;;
2620;SDS011;1320;48.128;11.592;2022-08-19T02:13:29;12.07;;;6.27;;
2620;SDS011;1320;48.128;11.592;2022-08-19T02:15:54;13.20;;;6.27;;
2620;SDS011;1320;48.128;11.592;2022-08-19T02:18:20;12.20;;;7.50;;
2620;SDS011;1320;48.128;11.592;2022-08-19T02:20:46;15.33;;;8.10;;
2620;SDS011;1320;48.128;11.592;2022-08-19T02:23:14;14.33;;;7.00;;
2620;SDS011;1320;48.128;11.592;2022-08-19T02:25:42;12.20;;;5.93;;
2620;SDS011;1320;48.128;11.592;2022-08-19T02:28:09;12.30;;;5.63;;
2620;SDS011;1320;48.128;11.592;2022-08-19T02:30:36;11.67;;;5.80;;
2620;SDS011;1320;48.128;11.592;2022-08-19T02:33:03;20.03;;;6.07;;
2620;SDS011;1320;48.128;11.592;2022-08-19T02:35:29;13.00;;;5.30;;
2620;SDS011;1320;48.128;11.592;2022-08-19T02:37:55;13.23;;;6.00;;
2620;SDS011;1320;48.128;11.592;2022-08-19T02:40:39;13.80;;;6.80;;
2620;SDS011;1320;48.128;11.592;2022-08-19T02:43:06;12.70;;;5.80;;
2620;SDS011;1320;48.128;11.592;2022-08-19T02:45:38;11.33;;;5.73;;
2620;SDS011;1320;48.128;11.592;2022-08-19T02:48:07;12.07;;;5.63;;
2620;SDS011;1320;48.128;11.592;2022-08-19T02:50:37;11.80;;;5.57;;
2620;SDS011;1320;48.128;11.592;2022-08-19T02:53:03;10.80;;;5.43;;
2620;SDS011;1320;48.128;11.592;2022-08-19T02:55:29;11.27;;;5.63;;
2620;SDS011;1320;48.128;11.592;2022-08-19T02:57:55;11.23;;;5.73;;
2620;SDS011;1320;48.128;11.592;2022-08-19T03:00:22;12.43;;;5.53;;
2620;SDS011;1320;48.128;11.592;2022-08-19T03:02:49;11.10;;;5.57;;
2620;SDS011;1320;48.128;11.592;2022-08-19T03:05:15;10.80;;;5.50;;
2620;SDS011;1320;48.128;11.592;2022-08-19T03:07:40;11.67;;;5.67;;
2620;SDS011;1320;48.128;11.592;2022-08-19T03:10:06;12.37;;;6.23;;
2620;SDS011;1320;48.128;11.592;2022-08-19T03:12:35;12.90;;;5.97;;
2620;SDS011;1320;48.128;11.592;2022-08-19T03:15:03;12.70;;;5.90;;
2620;SDS011;1320;48.128;11.592;2022-08-19T03:17:33;11.93;;;6.23;;
2620;SDS011;1320;48.128;11.592;2022-08-19T03:19:59;12.13;;;5.63;;
2620;SDS011;1320;48.128;11.592;2022-08-19T03:22:26;11.67;;;5.60;;
2620;SDS011;1320;48.128;11.592;2022-08-19T03:24:51;12.50;;;6.00;;
2620;SDS011;1320;48.128;11.592;2022-08-19T03:27:18;12.00;;;5.93;;
2620;SDS011;1320;48.128;11.592;2022-08-19T03:29:44;11.40;;;5.00;;
2620;SDS011;1320;48.128;11.592;2022-08-19T03:32:10;11.00;;;5.47;;
2620;SDS011;1320;48.128;11.592;2022-08-19T03:34:37;11.53;;;5.90;;
2620;SDS011;1320;48.128;11.592;2022-08-19T03:37:05;11.70;;;6.00;;
2620;SDS011;1320;48.128;11.592;2022-08-19T03:39:32;11.60;;;4.70;;
2620;SDS011;1320;48.128;11.592;2022-08-19T03:42:00;11.90;;;5.57;;
2620;SDS011;1320;48.128;11.592;2022-08-19T03:44:27;12.03;;;5.67;;
2620;SDS011;1320;48.128;11.592;2022-08-19T03:46:55;13.30;;;4.93;;
2620;SDS011;1320;48.128;11.592;2022-08-19T03:49:24;12.10;;;5.90;;
2620;SDS011;1320;48.128;11.592;2022-08-19T03:51:52;11.80;;;6.83;;
2620;SDS011;1320;48.128;11.592;2022-08-19T03:54:19;12.67;;;5.90;;
2620;SDS011;1320;48.128;11.592;2022-08-19T03:56:49;10.80;;;5.70;;
2620;SDS011;1320;48.128;11.592;2022-08-19T03:59:18;11.00;;;5.07;;
2620;SDS011;1320;48.128;11.592;2022-08-19T04:01:48;11.90;;;5.70;;
2620;SDS011;1320;48.128;11.592;2022-08-19T04:04:13;15.20;;;5.67;;
2620;SDS011;1320;48.128;11.592;2022-08-19T04:06:39;12.60;;;5.70;;
2620;SDS011;1320;48.128;11.592;2022-08-19T04:09:05;13.20;;;6.00;;
2620;SDS011;1320;48.128;11.592;2022-08-19T04:11:34;11.93;;;6.40;;
2620;SDS011;1320;48.128;11.592;2022-08-19T04:14:09;11.07;;;5.23;;
2620;SDS011;1320;48.128;11.592;2022-08-19T04:16:37;12.50;;;5.43;;
2620;SDS011;1320;48.128;11.592;2022-08-19T04:19:03;10.97;;;5.37;;
2620;SDS011;1320;48.128;11.592;2022-08-19T04:21:30;11.40;;;5.77;;
2620;SDS011;1320;48.128;11.592;2022-08-19T04:23:56;12.80;;;6.17;;
2620;SDS011;1320;48.128;11.592;2022-08-19T04:26:23;11.50;;;5.87;;
2620;SDS011;1320;48.128;11.592;2022-08-19T04:28:57;13.17;;;6.97;;
2620;SDS011;1320;48.128;11.592;2022-08-19T04:31:25;13.60;;;7.20;;
2620;SDS011;1320;48.128;11.592;2022-08-19T04:33:53;13.87;;;6.23;;
2620;SDS011;1320;48.128;11.592;2022-08-19T04:36:22;12.77;;;7.00;;
2620;SDS011;1320;48.128;11.592;2022-08-19T04:38:52;11.83;;;6.03;;
2620;SDS011;1320;48.128;11.592;2022-08-19T04:41:20;12.03;;;6.37;;
2620;SDS011;1320;48.128;11.592;2022-08-19T04:44:04;14.30;;;6.77;;
2620;SDS011;1320;48.128;11.592;2022-08-19T04:46:31;13.27;;;6.77;;
2620;SDS011;1320;48.128;11.592;2022-08-19T04:48:57;13.50;;;6.80;;
2620;SDS011;1320;48.128;11.592;2022-08-19T04:51:24;15.20;;;6.90;;
2620;SDS011;1320;48.128;11.592;2022-08-19T04:53:50;14.77;;;7.50;;
2620;SDS011;1320;48.128;11.592;2022-08-19T04:56:17;15.03;;;7.17;;
2620;SDS011;1320;48.128;11.592;2022-08-19T04:58:45;14.30;;;7.73;;
2620;SDS011;1320;48.128;11.592;2022-08-19T05:01:12;13.10;;;7.03;;
2620;SDS011;1320;48.128;11.592;2022-08-19T05:03:41;13.20;;;6.70;;
2620;SDS011;1320;48.128;11.592;2022-08-19T05:06:10;14.07;;;6.97;;
2620;SDS011;1320;48.128;11.592;2022-08-19T05:08:38;13.23;;;7.07;;
2620;SDS011;1320;48.128;11.592;2022-08-19T05:11:20;12.73;;;5.90;;
2620;SDS011;1320;48.128;11.592;2022-08-19T05:13:49;12.10;;;6.13;;
2620;SDS011;1320;48.128;11.592;2022-08-19T05:16:16;13.87;;;8.00;;
2620;SDS011;1320;48.128;11.592;2022-08-19T05:18:44;13.57;;;6.53;;
2620;SDS011;1320;48.128;11.592;2022-08-19T05:21:29;13.30;;;7.67;;
2620;SDS011;1320;48.128;11.592;2022-08-19T05:24:14;14.40;;;7.43;;
2620;SDS011;1320;48.128;11.592;2022-08-19T05:26:41;14.67;;;7.80;;
2620;SDS011;1320;48.128;11.592;2022-08-19T05:29:16;17.60;;;6.70;;
2620;SDS011;1320;48.128;11.592;2022-08-19T05:31:45;12.83;;;6.30;;
2620;SDS011;1320;48.128;11.592;2022-08-19T05:34:12;12.30;;;6.40;;
2620;SDS011;1320;48.128;11.592;2022-08-19T05:36:39;13.03;;;5.83;;
2620;SDS011;1320;48.128;11.592;2022-08-19T05:39:07;12.13;;;5.70;;
2620;SDS011;1320;48.128;11.592;2022-08-19T05:41:33;12.40;;;7.17;;
2620;SDS011;1320;48.128;11.592;2022-08-19T05:44:04;13.70;;;6.20;;
2620;SDS011;1320;48.128;11.592;2022-08-19T05:46:34;13.97;;;6.90;;
2620;SDS011;1320;48.128;11.592;2022-08-19T05:49:05;12.77;;;6.63;;
2620;SDS011;1320;48.128;11.592;2022-08-19T05:51:31;12.47;;;6.50;;
2620;SDS011;1320;48.128;11.592;2022-08-19T05:53:59;12.00;;;6.17;;
2620;SDS011;1320;48.128;11.592;2022-08-19T05:56:26;13.10;;;7.60;;
2620;SDS011;1320;48.128;11.592;2022-08-19T05:58:51;13.30;;;8.03;;
2620;SDS011;1320;48.128;11.592;2022-08-19T06:01:19;15.10;;;7.40;;
2620;SDS011;1320;48.128;11.592;2022-08-19T06:03:45;12.70;;;7.80;;
2620;SDS011;1320;48.128;11.592;2022-08-19T06:06:13;15.57;;;8.00;;
2620;SDS011;1320;48.128;11.592;2022-08-19T06:08:40;15.77;;;7.90;;
2620;SDS011;1320;48.128;11.592;2022-08-19T06:11:19;15.17;;;8.50;;
2620;SDS011;1320;48.128;11.592;2022-08-19T06:13:48;12.97;;;7.73;;
2620;SDS011;1320;48.128;11.592;2022-08-19T06:16:21;15.90;;;8.60;;
2620;SDS011;1320;48.128;11.592;2022-08-19T06:18:56;16.27;;;9.30;;
2620;SDS011;1320;48.128;11.592;2022-08-19T06:21:25;13.67;;;8.20;;
2620;SDS011;1320;48.128;11.592;2022-08-19T06:23:52;15.30;;;7.80;;
2620;SDS011;1320;48.128;11.592;2022-08-19T06:26:19;15.13;;;8.87;;
2620;SDS011;1320;48.128;11.592;2022-08-19T06:28:46;16.03;;;8.23;;
2620;SDS011;1320;48.128;11.592;2022-08-19T06:31:13;16.77;;;9.00;;
2620;SDS011;1320;48.128;11.592;2022-08-19T06:33:41;20.07;;;10.30;;
2620;SDS011;1320;48.128;11.592;2022-08-19T06:36:08;16.07;;;9.30;;
2620;SDS011;1320;48.128;11.592;2022-08-19T06:38:41;18.80;;;9.77;;
2620;SDS011;1320;48.128;11.592;2022-08-19T06:41:07;15.47;;;9.23;;
2620;SDS011;1320;48.128;11.592;2022-08-19T06:43:33;17.30;;;9.97;;
2620;SDS011;1320;48.128;11.592;2022-08-19T06:45:58;17.10;;;10.00;;
2620;SDS011;1320;48.128;11.592;2022-08-19T06:48:26;18.00;;;9.60;;
2620;SDS011;1320;48.128;11.592;2022-08-19T06:50:54;18.20;;;10.60;;
2620;SDS011;1320;48.128;11.592;2022-08-19T06:53:20;17.83;;;9.90;;
2620;SDS011;1320;48.128;11.592;2022-08-19T06:55:47;18.97;;;9.73;;
2620;SDS011;1320;48.128;11.592;2022-08-19T06:58:12;19.43;;;11.50;;
2620;SDS011;1320;48.128;11.592;2022-08-19T07:00:39;20.23;;;11.10;;
2620;SDS011;1320;48.128;11.592;2022-08-19T07:03:05;17.93;;;10.53;;
2620;SDS011;1320;48.128;11.592;2022-08-19T07:05:30;16.90;;;10.70;;
2620;SDS011;1320;48.128;11.592;2022-08-19T07:07:56;17.63;;;10.43;;
2620;SDS011;1320;48.128;11.592;2022-08-19T07:10:22;18.40;;;10.80;;
2620;SDS011;1320;48.128;11.592;2022-08-19T07:12:48;17.57;;;10.37;;
2620;SDS011;1320;48.128;11.592;2022-08-19T07:15:15;17.80;;;11.20;;
2620;SDS011;1320;48.128;11.592;2022-08-19T07:17:41;20.67;;;11.33;;
2620;SDS011;1320;48.128;11.592;2022-08-19T07:20:08;19.37;;;11.40;;
2620;SDS011;1320;48.128;11.592;2022-08-19T07:22:35;20.10;;;10.57;;
2620;SDS011;1320;48.128;11.592;2022-08-19T07:25:02;22.20;;;12.80;;
2620;SDS011;1320;48.128;11.592;2022-08-19T07:27:28;17.33;;;10.77;;
2620;SDS011;1320;48.128;11.592;2022-08-19T07:29:55;19.80;;;10.60;;
2620;SDS011;1320;48.128;11.592;2022-08-19T07:32:20;17.93;;;11.03;;
2620;SDS011;1320;48.128;11.592;2022-08-19T07:34:46;18.07;;;11.93;;
2620;SDS011;1320;48.128;11.592;2022-08-19T07:37:12;20.63;;;12.00;;
2620;SDS011;1320;48.128;11.592;2022-08-19T07:39:37;21.73;;;13.37;;
2620;SDS011;1320;48.128;11.592;2022-08-19T07:42:05;20.80;;;13.00;;
2620;SDS011;1320;48.128;11.592;2022-08-19T07:44:34;20.30;;;13.57;;
2620;SDS011;1320;48.128;11.592;2022-08-19T07:47:01;20.50;;;12.57;;
2620;SDS011;1320;48.128;11.592;2022-08-19T07:49:28;26.57;;;13.20;;
2620;SDS011;1320;48.128;11.592;2022-08-19T07:51:56;21.50;;;12.83;;
2620;SDS011;1320;48.128;11.592;2022-08-19T07:54:24;29.23;;;14.13;;
2620;SDS011;1320;48.128;11.592;2022-08-19T07:56:51;21.27;;;13.70;;
2620;SDS011;1320;48.128;11.592;2022-08-19T07:59:18;21.43;;;13.17;;
2620;SDS011;1320;48.128;11.592;2022-08-19T08:01:45;22.83;;;13.07;;
2620;SDS011;1320;48.128;11.592;2022-08-19T08:04:11;18.37;;;12.13;;
2620;SDS011;1320;48.128;11.592;2022-08-19T08:06:55;22.20;;;13.90;;
2620;SDS011;1320;48.128;11.592;2022-08-19T08:09:40;21.90;;;13.93;;
2620;SDS011;1320;48.128;11.592;2022-08-19T08:12:12;24.40;;;13.63;;
2620;SDS011;1320;48.128;11.592;2022-08-19T08:14:48;22.70;;;14.30;;
2620;SDS011;1320;48.128;11.592;2022-08-19T08:17:16;19.97;;;11.97;;
2620;SDS011;1320;48.128;11.592;2022-08-19T08:19:43;20.73;;;12.10;;
2620;SDS011;1320;48.128;11.592;2022-08-19T08:22:10;19.17;;;13.47;;
2620;SDS011;1320;48.128;11.592;2022-08-19T08:27:39;21.90;;;13.27;;
2620;SDS011;1320;48.128;11.592;2022-08-19T08:30:08;22.83;;;13.13;;
2620;SDS011;1320;48.128;11.592;2022-08-19T08:32:38;19.43;;;13.10;;
2620;SDS011;1320;48.128;11.592;2022-08-19T08:35:05;22.30;;;13.63;;
2620;SDS011;1320;48.128;11.592;2022-08-19T08:37:33;19.97;;;13.23;;
2620;SDS011;1320;48.128;11.592;2022-08-19T08:40:01;23.83;;;14.17;;
2620;SDS011;1320;48.128;11.592;2022-08-19T08:42:34;24.93;;;14.00;;
2620;SDS011;1320;48.128;11.592;2022-08-19T08:45:06;20.20;;;12.73;;
2620;SDS011;1320;48.128;11.592;2022-08-19T08:47:41;24.87;;;15.40;;
2620;SDS011;1320;48.128;11.592;2022-08-19T08:53:01;26.43;;;13.80;;
2620;SDS011;1320;48.128;11.592;2022-08-19T08:55:29;24.20;;;14.20;;
2620;SDS011;1320;48.128;11.592;2022-08-19T08:57:59;24.80;;;15.30;;
2620;SDS011;1320;48.128;11.592;2022-08-19T09:00:27;23.90;;;14.63;;
2620;SDS011;1320;48.128;11.592;2022-08-19T09:02:58;23.10;;;14.00;;
2620;SDS011;1320;48.128;11.592;2022-08-19T09:05:40;23.13;;;15.77;;
2620;SDS011;1320;48.128;11.592;2022-08-19T09:08:13;22.77;;;14.30;;
2620;SDS011;1320;48.128;11.592;2022-08-19T09:10:55;21.67;;;15.00;;
2620;SDS011;1320;48.128;11.592;2022-08-19T09:16:22;22.10;;;13.83;;
2620;SDS011;1320;48.128;11.592;2022-08-19T09:18:53;20.53;;;13.33;;
2620;SDS011;1320;48.128;11.592;2022-08-19T09:21:23;22.73;;;13.80;;
2620;SDS011;1320;48.128;11.592;2022-08-19T09:23:51;21.50;;;12.87;;
2620;SDS011;1320;48.128;11.592;2022-08-19T09:26:19;22.93;;;12.60;;
2620;SDS011;1320;48.128;11.592;2022-08-19T09:28:47;19.73;;;12.63;;
2620;SDS011;1320;48.128;11.592;2022-08-19T09:31:16;23.03;;;13.83;;
2620;SDS011;1320;48.128;11.592;2022-08-19T09:33:44;20.97;;;12.50;;
2620;SDS011;1320;48.128;11.592;2022-08-19T09:36:11;19.70;;;12.27;;
2620;SDS011;1320;48.128;11.592;2022-08-19T09:38:38;20.73;;;13.53;;
2620;SDS011;1320;48.128;11.592;2022-08-19T09:41:07;24.00;;;13.60;;
2620;SDS011;1320;48.128;11.592;2022-08-19T09:43:36;19.30;;;11.47;;
2620;SDS011;1320;48.128;11.592;2022-08-19T09:46:03;18.30;;;11.60;;
2620;SDS011;1320;48.128;11.592;2022-08-19T09:48:34;23.80;;;13.50;;
2620;SDS011;1320;48.128;11.592;2022-08-19T09:53:34;21.00;;;12.40;;
2620;SDS011;1320;48.128;11.592;2022-08-19T09:56:01;19.60;;;12.07;;
2620;SDS011;1320;48.128;11.592;2022-08-19T09:58:28;21.10;;;12.57;;
2620;SDS011;1320;48.128;11.592;2022-08-19T10:00:55;22.73;;;13.30;;
2620;SDS011;1320;48.128;11.592;2022-08-19T10:03:23;19.23;;;11.60;;
2620;SDS011;1320;48.128;11.592;2022-08-19T10:05:49;25.80;;;13.90;;
2620;SDS011;1320;48.128;11.592;2022-08-19T10:08:16;20.37;;;11.67;;
2620;SDS011;1320;48.128;11.592;2022-08-19T10:10:45;20.53;;;11.80;;
2620;SDS011;1320;48.128;11.592;2022-08-19T10:13:13;20.47;;;12.10;;
2620;SDS011;1320;48.128;11.592;2022-08-19T10:15:41;20.27;;;11.97;;
2620;SDS011;1320;48.128;11.592;2022-08-19T10:18:07;18.57;;;11.20;;
2620;SDS011;1320;48.128;11.592;2022-08-19T10:20:33;20.13;;;12.10;;
2620;SDS011;1320;48.128;11.592;2022-08-19T10:23:01;20.27;;;11.87;;
2620;SDS011;1320;48.128;11.592;2022-08-19T10:25:28;20.00;;;12.53;;
2620;SDS011;1320;48.128;11.592;2022-08-19T10:27:53;18.60;;;11.10;;
2620;SDS011;1320;48.128;11.592;2022-08-19T10:30:19;15.80;;;10.63;;
2620;SDS011;1320;48.128;11.592;2022-08-19T10:32:45;19.53;;;11.93;;
2620;SDS011;1320;48.128;11.592;2022-08-19T10:35:11;19.07;;;11.77;;
2620;SDS011;1320;48.128;11.592;2022-08-19T10:37:38;19.80;;;11.10;;
2620;SDS011;1320;48.128;11.592;2022-08-19T10:40:05;17.77;;;10.37;;
2620;SDS011;1320;48.128;11.592;2022-08-19T10:42:33;18.13;;;10.77;;
2620;SDS011;1320;48.128;11.592;2022-08-19T10:45:00;18.57;;;11.33;;
2620;SDS011;1320;48.128;11.592;2022-08-19T10:47:26;16.67;;;11.27;;
2620;SDS011;1320;48.128;11.592;2022-08-19T10:49:52;15.50;;;10.20;;
2620;SDS011;1320;48.128;11.592;2022-08-19T10:52:43;15.90;;;10.53;;
2620;SDS011;1320;48.128;11.592;2022-08-19T10:55:11;16.03;;;10.03;;
2620;SDS011;1320;48.128;11.592;2022-08-19T10:57:55;17.60;;;10.47;;
2620;SDS011;1320;48.128;11.592;2022-08-19T11:00:22;15.80;;;8.57;;
2620;SDS011;1320;48.128;11.592;2022-08-19T11:02:49;17.10;;;9.10;;
2620;SDS011;1320;48.128;11.592;2022-08-19T11:05:15;13.03;;;9.20;;
2620;SDS011;1320;48.128;11.592;2022-08-19T11:07:42;15.67;;;10.80;;
2620;SDS011;1320;48.128;11.592;2022-08-19T11:10:10;14.63;;;8.77;;
2620;SDS011;1320;48.128;11.592;2022-08-19T11:12:38;13.97;;;9.53;;
2620;SDS011;1320;48.128;11.592;2022-08-19T11:15:06;13.10;;;9.10;;
2620;SDS011;1320;48.128;11.592;2022-08-19T11:17:33;13.90;;;8.40;;
2620;SDS011;1320;48.128;11.592;2022-08-19T11:20:00;15.20;;;9.30;;
2620;SDS011;1320;48.128;11.592;2022-08-19T11:22:29;14.93;;;10.40;;
2620;SDS011;1320;48.128;11.592;2022-08-19T11:24:55;15.07;;;9.00;;
2620;SDS011;1320;48.128;11.592;2022-08-19T11:27:20;15.30;;;8.43;;
2620;SDS011;1320;48.128;11.592;2022-08-19T11:29:46;14.07;;;8.43;;
2620;SDS011;1320;48.128;11.592;2022-08-19T11:32:12;14.20;;;9.50;;
2620;SDS011;1320;48.128;11.592;2022-08-19T11:34:38;13.03;;;8.20;;
2620;SDS011;1320;48.128;11.592;2022-08-19T11:37:04;13.53;;;8.77;;
2620;SDS011;1320;48.128;11.592;2022-08-19T11:39:31;14.40;;;9.10;;
2620;SDS011;1320;48.128;11.592;2022-08-19T11:41:58;15.03;;;9.20;;
2620;SDS011;1320;48.128;11.592;2022-08-19T11:44:24;13.83;;;8.03;;
2620;SDS011;1320;48.128;11.592;2022-08-19T11:46:51;13.47;;;7.60;;
2620;SDS011;1320;48.128;11.592;2022-08-19T11:49:18;12.90;;;7.90;;
2620;SDS011;1320;48.128;11.592;2022-08-19T11:51:46;12.50;;;6.47;;
2620;SDS011;1320;48.128;11.592;2022-08-19T11:54:13;14.07;;;7.57;;
2620;SDS011;1320;48.128;11.592;2022-08-19T11:56:41;10.50;;;6.23;;
2620;SDS011;1320;48.128;11.592;2022-08-19T11:59:06;10.03;;;5.60;;
2620;SDS011;1320;48.128;11.592;2022-08-19T12:01:33;9.20;;;4.53;;
2620;SDS011;1320;48.128;11.592;2022-08-19T12:03:59;10.10;;;3.63;;
2620;SDS011;1320;48.128;11.592;2022-08-19T12:06:26;8.40;;;3.90;;
2620;SDS011;1320;48.128;11.592;2022-08-19T12:08:55;8.63;;;4.80;;
2620;SDS011;1320;48.128;11.592;2022-08-19T12:11:21;10.37;;;4.13;;
2620;SDS011;1320;48.128;11.592;2022-08-19T12:13:47;8.70;;;4.17;;
2620;SDS011;1320;48.128;11.592;2022-08-19T12:16:14;8.10;;;3.33;;
2620;SDS011;1320;48.128;11.592;2022-08-19T12:18:43;7.67;;;3.60;;
2620;SDS011;1320;48.128;11.592;2022-08-19T12:21:11;6.93;;;3.80;;
2620;SDS011;1320;48.128;11.592;2022-08-19T12:23:38;7.83;;;2.83;;
2620;SDS011;1320;48.128;11.592;2022-08-19T12:26:05;6.73;;;2.30;;
2620;SDS011;1320;48.128;11.592;2022-08-19T12:28:31;7.30;;;2.93;;
2620;SDS011;1320;48.128;11.592;2022-08-19T12:30:57;7.17;;;2.53;;
2620;SDS011;1320;48.128;11.592;2022-08-19T12:33:24;7.40;;;2.80;;
2620;SDS011;1320;48.128;11.592;2022-08-19T12:35:52;6.63;;;2.33;;
2620;SDS011;1320;48.128;11.592;2022-08-19T12:38:18;9.13;;;3.90;;
2620;SDS011;1320;48.128;11.592;2022-08-19T12:40:47;7.33;;;2.87;;
2620;SDS011;1320;48.128;11.592;2022-08-19T12:43:14;7.30;;;2.43;;
2620;SDS011;1320;48.128;11.592;2022-08-19T12:45:41;8.80;;;2.67;;
2620;SDS011;1320;48.128;11.592;2022-08-19T12:48:07;7.60;;;3.30;;
2620;SDS011;1320;48.128;11.592;2022-08-19T12:50:33;7.50;;;3.47;;
2620;SDS011;1320;48.128;11.592;2022-08-19T12:52:59;6.57;;;2.47;;
2620;SDS011;1320;48.128;11.592;2022-08-19T12:55:25;9.90;;;3.30;;
2620;SDS011;1320;48.128;11.592;2022-08-19T12:57:53;8.30;;;2.77;;
2620;SDS011;1320;48.128;11.592;2022-08-19T13:00:19;7.97;;;3.47;;
2620;SDS011;1320;48.128;11.592;2022-08-19T13:02:47;7.07;;;2.33;;
2620;SDS011;1320;48.128;11.592;2022-08-19T13:05:17;7.33;;;2.60;;
2620;SDS011;1320;48.128;11.592;2022-08-19T13:07:46;6.03;;;2.00;;
2620;SDS011;1320;48.128;11.592;2022-08-19T13:10:12;7.37;;;2.60;;
2620;SDS011;1320;48.128;11.592;2022-08-19T13:12:41;7.00;;;4.23;;
2620;SDS011;1320;48.128;11.592;2022-08-19T13:15:08;7.80;;;2.73;;
2620;SDS011;1320;48.128;11.592;2022-08-19T13:17:35;7.57;;;3.53;;
2620;SDS011;1320;48.128;11.592;2022-08-19T13:20:02;7.10;;;3.10;;
2620;SDS011;1320;48.128;11.592;2022-08-19T13:22:29;6.50;;;3.20;;
2620;SDS011;1320;48.128;11.592;2022-08-19T13:24:54;7.90;;;4.63;;
2620;SDS011;1320;48.128;11.592;2022-08-19T13:27:20;6.87;;;3.40;;
2620;SDS011;1320;48.128;11.592;2022-08-19T13:29:45;7.23;;;3.53;;
2620;SDS011;1320;48.128;11.592;2022-08-19T13:32:29;7.83;;;4.20;;
2620;SDS011;1320;48.128;11.592;2022-08-19T13:35:14;7.57;;;4.33;;
2620;SDS011;1320;48.128;11.592;2022-08-19T13:37:40;6.60;;;3.47;;
2620;SDS011;1320;48.128;11.592;2022-08-19T13:40:10;9.27;;;5.80;;
2620;SDS011;1320;48.128;11.592;2022-08-19T13:42:43;7.63;;;4.17;;
2620;SDS011;1320;48.128;11.592;2022-08-19T13:45:11;7.00;;;3.43;;
2620;SDS011;1320;48.128;11.592;2022-08-19T13:47:39;8.53;;;7.03;;
2620;SDS011;1320;48.128;11.592;2022-08-19T13:50:10;7.70;;;5.47;;
2620;SDS011;1320;48.128;11.592;2022-08-19T13:52:37;7.43;;;4.10;;
2620;SDS011;1320;48.128;11.592;2022-08-19T13:55:04;8.20;;;5.07;;
2620;SDS011;1320;48.128;11.592;2022-08-19T13:57:31;7.17;;;3.47;;
2620;SDS011;1320;48.128;11.592;2022-08-19T13:59:57;7.03;;;3.30;;
2620;SDS011;1320;48.128;11.592;2022-08-19T14:02:23;7.40;;;3.97;;
2620;SDS011;1320;48.128;11.592;2022-08-19T14:04:49;8.43;;;4.80;;
2620;SDS011;1320;48.128;11.592;2022-08-19T14:07:15;9.27;;;4.73;;
2620;SDS011;1320;48.128;11.592;2022-08-19T14:09:41;8.53;;;4.40;;
2620;SDS011;1320;48.128;11.592;2022-08-19T14:12:07;8.70;;;4.57;;
2620;SDS011;1320;48.128;11.592;2022-08-19T14:14:36;7.13;;;2.87;;
2620;SDS011;1320;48.128;11.592;2022-08-19T14:17:05;8.67;;;3.50;;
2620;SDS011;1320;48.128;11.592;2022-08-19T14:19:31;8.83;;;4.23;;
2620;SDS011;1320;48.128;11.592;2022-08-19T14:21:57;7.90;;;4.00;;
2620;SDS011;1320;48.128;11.592;2022-08-19T14:24:23;8.40;;;5.03;;
2620;SDS011;1320;48.128;11.592;2022-08-19T14:26:49;8.10;;;3.80;;
2620;SDS011;1320;48.128;11.592;2022-08-19T14:29:15;8.30;;;5.17;;
2620;SDS011;1320;48.128;11.592;2022-08-19T14:31:41;8.67;;;4.20;;
2620;SDS011;1320;48.128;11.592;2022-08-19T14:34:09;10.07;;;5.87;;
2620;SDS011;1320;48.128;11.592;2022-08-19T14:36:35;10.50;;;8.65;;
2620;SDS011;1320;48.128;11.592;2022-08-19T14:39:02;10.60;;;9.50;;
2620;SDS011;1320;48.128;11.592;2022-08-19T14:41:28;9.53;;;6.20;;
2620;SDS011;1320;48.128;11.592;2022-08-19T14:43:55;9.00;;;5.67;;
2620;SDS011;1320;48.128;11.592;2022-08-19T14:46:25;9.10;;;4.37;;
2620;SDS011;1320;48.128;11.592;2022-08-19T14:48:53;8.10;;;3.90;;
2620;SDS011;1320;48.128;11.592;2022-08-19T14:51:20;8.33;;;3.47;;
2620;SDS011;1320;48.128;11.592;2022-08-19T14:53:48;8.70;;;4.13;;
2620;SDS011;1320;48.128;11.592;2022-08-19T14:56:16;7.73;;;2.90;;
2620;SDS011;1320;48.128;11.592;2022-08-19T14:58:46;9.63;;;3.70;;
2620;SDS011;1320;48.128;11.592;2022-08-19T15:01:12;7.50;;;3.30;;
2620;SDS011;1320;48.128;11.592;2022-08-19T15:03:39;7.70;;;3.00;;